Time;durP1;ratioP1;P1;durP2;ratioP2;P2;SDS_P1;SDS_P2;PMS_P1;PMS_P2;Temp;Humidity;BMP_temperature;BMP_pressure;BME280_temperature;BME280_humidity;BME280_pressure;Samples;Min_cycle;Max_cycle;Signal;HPM_P1;HPM_P2
2022/11/07 00:02:46;;;;;;;18.33;11.75;;;;;;;;;;5073208;28;20047;-76
2022/11/07 00:05:15;;;;;;;21.38;12.15;;;;;;;;;;5054165;28;20386;-76
2022/11/07 00:11:00;;;;;;;17.60;11.10;;;;;;;;;;5022675;28;20076;-76
2022/11/07 00:13:59;;;;;;;17.98;11.50;;;;;;;;;;5051149;28;20059;-76
2022/11/07 00:17:03;;;;;;;;;;;;;;;;;;;;;
2022/11/07 00:19:48;;;;;;;20.05;11.82;;;;;;;;;;5030620;28;20472;-76
2022/11/07 00:22:49;;;;;;;18.83;11.13;;;;;;;;;;5010570;28;20037;-77
2022/11/07 00:25:15;;;;;;;18.75;12.20;;;;;;;;;;5011785;28;20021;-79
2022/11/07 00:27:41;;;;;;;17.20;11.10;;;;;;;;;;5027016;28;20040;-77
2022/11/07 00:30:25;;;;;;;19.05;11.80;;;;;;;;;;5031874;28;20033;-78
2022/11/07 00:33:06;;;;;;;15.90;11.27;;;;;;;;;;5031541;28;20018;-78
2022/11/07 00:36:13;;;;;;;14.30;10.50;;;;;;;;;;5013540;28;20033;-77
2022/11/07 00:45:12;;;;;;;16.45;11.98;;;;;;;;;;4958697;28;20508;-78
2022/11/07 00:47:38;;;;;;;18.75;12.20;;;;;;;;;;5003774;28;20038;-77
2022/11/07 00:50:13;;;;;;;22.85;13.02;;;;;;;;;;5013790;28;20026;-77
2022/11/07 00:52:57;;;;;;;19.67;12.40;;;;;;;;;;5028780;28;20511;-77
2022/11/07 00:55:23;;;;;;;18.92;12.73;;;;;;;;;;5030926;28;20104;-77
2022/11/07 00:57:49;;;;;;;22.25;13.10;;;;;;;;;;5029359;28;20453;-76
2022/11/07 01:00:15;;;;;;;19.05;12.90;;;;;;;;;;5030613;28;20376;-76
2022/11/07 01:02:41;;;;;;;20.30;13.63;;;;;;;;;;5029205;28;20026;-77
2022/11/07 01:05:24;;;;;;;24.20;14.25;;;;;;;;;;5030610;28;20378;-77
2022/11/07 01:08:10;;;;;;;21.67;13.50;;;;;;;;;;5029817;28;20026;-77
2022/11/07 01:10:40;;;;;;;22.58;14.40;;;;;;;;;;5030881;28;20463;-77
2022/11/07 01:13:09;;;;;;;21.88;13.70;;;;;;;;;;5013810;28;20022;-78
2022/11/07 01:15:40;;;;;;;20.63;13.80;;;;;;;;;;5034428;28;20464;-78
2022/11/07 01:18:06;;;;;;;23.30;14.20;;;;;;;;;;5031808;28;20128;-78
2022/11/07 01:20:35;;;;;;;23.67;14.15;;;;;;;;;;5032236;28;20032;-77
2022/11/07 01:23:01;;;;;;;21.95;13.10;;;;;;;;;;5031055;28;20025;-78
2022/11/07 01:25:34;;;;;;;20.67;14.02;;;;;;;;;;5031449;28;20147;-78
2022/11/07 01:28:03;;;;;;;22.13;14.55;;;;;;;;;;5030278;28;20119;-78
2022/11/07 01:30:30;;;;;;;22.52;13.38;;;;;;;;;;5013920;28;20028;-79
2022/11/07 01:32:58;;;;;;;24.02;14.00;;;;;;;;;;5033394;28;20030;-74
2022/11/07 01:35:31;;;;;;;21.38;13.15;;;;;;;;;;5033743;28;20053;-76
2022/11/07 01:37:57;;;;;;;20.38;13.30;;;;;;;;;;5033070;28;20025;-77
2022/11/07 01:40:29;;;;;;;23.65;14.18;;;;;;;;;;5032933;28;20059;-76
2022/11/07 01:42:55;;;;;;;26.10;16.02;;;;;;;;;;5033953;28;20553;-76
2022/11/07 01:45:25;;;;;;;24.23;15.80;;;;;;;;;;5033905;28;20041;-77
2022/11/07 01:48:13;;;;;;;25.13;14.40;;;;;;;;;;5032656;28;20087;-77
2022/11/07 01:50:52;;;;;;;;;;;;;;;;;;;;;
2022/11/07 01:53:39;;;;;;;25.60;15.57;;;;;;;;;;4985813;28;20485;-78
2022/11/07 01:56:07;;;;;;;25.10;15.27;;;;;;;;;;4976411;28;20034;-77
2022/11/07 01:58:51;;;;;;;26.52;16.85;;;;;;;;;;5128484;22;20041;-78
2022/11/07 02:02:03;;;;;;;;;;;;;;;;;;;;;
2022/11/07 02:04:32;;;;;;;29.25;18.05;;;;;;;;;;5024838;28;20025;-77
2022/11/07 02:07:01;;;;;;;29.98;17.30;;;;;;;;;;5033394;28;20034;-77
2022/11/07 02:09:38;;;;;;;35.13;18.55;;;;;;;;;;5047483;28;20041;-77
2022/11/07 02:12:07;;;;;;;30.08;18.40;;;;;;;;;;5036947;28;20487;-77
2022/11/07 02:14:35;;;;;;;33.08;18.30;;;;;;;;;;5047406;28;20109;-77
2022/11/07 02:17:04;;;;;;;34.35;19.52;;;;;;;;;;5042944;28;20032;-76
2022/11/07 02:19:34;;;;;;;37.10;20.40;;;;;;;;;;5031458;28;20030;-78
2022/11/07 02:22:26;;;;;;;35.38;20.30;;;;;;;;;;5051230;28;20048;-76
2022/11/07 02:24:53;;;;;;;39.22;21.30;;;;;;;;;;5032323;28;20575;-75
2022/11/07 02:27:23;;;;;;;34.47;20.35;;;;;;;;;;5045110;28;20051;-76
2022/11/07 02:29:51;;;;;;;42.55;21.95;;;;;;;;;;5036192;28;20060;-76
2022/11/07 02:32:17;;;;;;;43.50;21.17;;;;;;;;;;5048352;28;20052;-76
2022/11/07 02:34:43;;;;;;;36.17;20.73;;;;;;;;;;5040866;28;20045;-77
2022/11/07 02:37:15;;;;;;;37.60;20.17;;;;;;;;;;5040475;28;20025;-77
2022/11/07 02:39:41;;;;;;;39.88;22.05;;;;;;;;;;5049028;28;20375;-76
2022/11/07 02:42:07;;;;;;;42.53;21.98;;;;;;;;;;5034852;28;20056;-78
2022/11/07 02:44:36;;;;;;;36.72;21.10;;;;;;;;;;5039542;28;20104;-79
2022/11/07 02:47:05;;;;;;;35.97;19.98;;;;;;;;;;5053011;28;20141;-77
2022/11/07 02:49:33;;;;;;;40.38;21.08;;;;;;;;;;5053468;28;20163;-78
2022/11/07 02:52:00;;;;;;;37.90;21.33;;;;;;;;;;5050980;28;20021;-77
2022/11/07 02:54:26;;;;;;;45.50;21.88;;;;;;;;;;5032975;28;20031;-78
2022/11/07 02:56:58;;;;;;;43.20;22.70;;;;;;;;;;5032881;28;20518;-78
2022/11/07 02:59:27;;;;;;;38.85;21.58;;;;;;;;;;5034936;28;20041;-77
2022/11/07 03:01:53;;;;;;;42.72;21.95;;;;;;;;;;5035282;28;20033;-76
2022/11/07 03:04:22;;;;;;;38.75;20.08;;;;;;;;;;5035555;28;20028;-77
2022/11/07 03:06:49;;;;;;;42.13;21.90;;;;;;;;;;5044967;28;20021;-77
2022/11/07 03:09:22;;;;;;;39.53;20.23;;;;;;;;;;5033028;28;20022;-76
2022/11/07 03:12:03;;;;;;;40.05;21.85;;;;;;;;;;5032941;28;20021;-77
2022/11/07 03:14:35;;;;;;;40.08;21.77;;;;;;;;;;5047222;28;20152;-77
2022/11/07 03:17:10;;;;;;;39.05;21.45;;;;;;;;;;5036105;28;20035;-75
2022/11/07 03:19:36;;;;;;;42.70;21.52;;;;;;;;;;5037114;28;20040;-75
2022/11/07 03:22:20;;;;;;;42.90;23.40;;;;;;;;;;5039025;28;20483;-74
2022/11/07 03:25:21;;;;;;;43.22;21.90;;;;;;;;;;5044771;28;20056;-75
2022/11/07 03:28:07;;;;;;;36.55;19.73;;;;;;;;;;5048135;28;20102;-76
2022/11/07 03:30:45;;;;;;;39.00;20.02;;;;;;;;;;5038750;28;20096;-78
2022/11/07 03:33:11;;;;;;;45.25;21.48;;;;;;;;;;5051846;28;20029;-77
2022/11/07 03:35:37;;;;;;;34.97;19.48;;;;;;;;;;5035651;28;20522;-77
2022/11/07 03:38:03;;;;;;;39.35;20.83;;;;;;;;;;5032054;28;20025;-77
2022/11/07 03:40:32;;;;;;;44.42;21.40;;;;;;;;;;5045708;28;20522;-77
2022/11/07 03:43:04;;;;;;;37.42;20.38;;;;;;;;;;5041847;28;20021;-77
2022/11/07 03:45:33;;;;;;;43.05;22.45;;;;;;;;;;5037028;28;20029;-76
2022/11/07 03:48:02;;;;;;;43.10;19.27;;;;;;;;;;5045922;28;20024;-77
2022/11/07 03:50:28;;;;;;;37.20;20.55;;;;;;;;;;5030912;28;20484;-76
2022/11/07 03:52:54;;;;;;;40.42;20.35;;;;;;;;;;5041151;28;20021;-77
2022/11/07 03:55:21;;;;;;;44.80;22.35;;;;;;;;;;5038098;28;20029;-76
2022/11/07 03:57:50;;;;;;;42.92;20.48;;;;;;;;;;5046830;28;20062;-77
2022/11/07 04:00:21;;;;;;;42.80;18.63;;;;;;;;;;5030556;28;20491;-77
2022/11/07 04:02:47;;;;;;;41.88;20.70;;;;;;;;;;5040204;28;20025;-78
2022/11/07 04:05:13;;;;;;;43.08;22.33;;;;;;;;;;5039791;28;20032;-77
2022/11/07 04:07:42;;;;;;;49.13;22.05;;;;;;;;;;5038407;28;20063;-77
2022/11/07 04:10:08;;;;;;;47.75;22.80;;;;;;;;;;5039226;28;20044;-75
2022/11/07 04:18:04;;;;;;;46.58;21.30;;;;;;;;;;5048405;28;20040;-76
2022/11/07 04:20:33;;;;;;;44.60;21.17;;;;;;;;;;5037880;28;20029;-76
2022/11/07 04:22:59;;;;;;;43.25;21.20;;;;;;;;;;5050038;28;20040;-76
2022/11/07 04:28:19;;;;;;;38.67;21.25;;;;;;;;;;5030475;28;20040;-77
2022/11/07 04:30:45;;;;;;;37.80;20.08;;;;;;;;;;5018089;28;20021;-77
2022/11/07 04:33:11;;;;;;;35.47;20.17;;;;;;;;;;5030823;28;20030;-76
2022/11/07 04:35:37;;;;;;;35.55;20.13;;;;;;;;;;5046108;28;20082;-75
2022/11/07 04:38:03;;;;;;;31.33;17.25;;;;;;;;;;5033987;28;20553;-77
2022/11/07 04:40:29;;;;;;;33.28;17.73;;;;;;;;;;5046929;28;20073;-77
2022/11/07 04:42:55;;;;;;;30.85;17.45;;;;;;;;;;5034790;28;20025;-77
2022/11/07 04:45:21;;;;;;;30.10;17.63;;;;;;;;;;5034985;28;20033;-76
2022/11/07 04:47:47;;;;;;;29.10;16.98;;;;;;;;;;5031546;28;20033;-77
2022/11/07 04:50:15;;;;;;;30.67;18.25;;;;;;;;;;5046907;28;20376;-77
2022/11/07 04:52:41;;;;;;;34.92;18.65;;;;;;;;;;5039208;28;20025;-77
2022/11/07 04:55:08;;;;;;;32.35;17.73;;;;;;;;;;5039493;28;20021;-76
2022/11/07 04:57:34;;;;;;;29.60;16.73;;;;;;;;;;5045146;28;20021;-75
2022/11/07 05:00:02;;;;;;;27.40;16.05;;;;;;;;;;5033456;28;20033;-75
2022/11/07 05:02:28;;;;;;;32.88;17.42;;;;;;;;;;5044671;28;20025;-75
2022/11/07 05:04:54;;;;;;;32.60;17.75;;;;;;;;;;5029676;28;20037;-75
2022/11/07 05:07:20;;;;;;;30.35;17.33;;;;;;;;;;5045423;28;20029;-76
2022/11/07 05:09:46;;;;;;;27.95;16.50;;;;;;;;;;5033536;28;20025;-77
2022/11/07 05:12:12;;;;;;;28.27;15.98;;;;;;;;;;5055057;28;20013;-77
2022/11/07 05:14:38;;;;;;;26.55;14.52;;;;;;;;;;5033848;28;20052;-77
2022/11/07 05:17:04;;;;;;;21.98;13.48;;;;;;;;;;5044862;28;20109;-76
2022/11/07 05:19:30;;;;;;;26.40;14.07;;;;;;;;;;5054413;28;20037;-77
2022/11/07 05:24:40;;;;;;;23.10;14.00;;;;;;;;;;5055550;28;20063;-77
2022/11/07 05:27:06;;;;;;;23.90;14.93;;;;;;;;;;5035927;28;20436;-76
2022/11/07 05:29:33;;;;;;;24.58;14.65;;;;;;;;;;5045272;28;20033;-78
2022/11/07 05:31:59;;;;;;;24.83;15.70;;;;;;;;;;5051095;28;20100;-77
2022/11/07 05:34:25;;;;;;;24.45;15.07;;;;;;;;;;5039676;28;20120;-74
2022/11/07 05:36:51;;;;;;;26.42;15.45;;;;;;;;;;5045069;28;20025;-77
2022/11/07 05:39:17;;;;;;;26.95;15.95;;;;;;;;;;5035520;28;20074;-77
2022/11/07 05:41:43;;;;;;;26.38;15.75;;;;;;;;;;5037749;28;20092;-77
2022/11/07 05:44:10;;;;;;;29.83;16.17;;;;;;;;;;5050043;28;20097;-77
2022/11/07 05:46:35;;;;;;;29.45;16.95;;;;;;;;;;5033863;28;20159;-77
2022/11/07 05:49:01;;;;;;;25.63;14.90;;;;;;;;;;5044152;28;20112;-78
2022/11/07 05:51:27;;;;;;;27.90;15.85;;;;;;;;;;5054212;28;20063;-76
2022/11/07 05:53:53;;;;;;;31.40;16.60;;;;;;;;;;5046400;28;20025;-76
2022/11/07 05:56:19;;;;;;;29.75;17.50;;;;;;;;;;5041192;28;20642;-76
2022/11/07 05:58:45;;;;;;;32.40;17.95;;;;;;;;;;5049918;28;20033;-76
2022/11/07 06:01:11;;;;;;;31.60;16.88;;;;;;;;;;5032080;28;20084;-77
2022/11/07 06:03:50;;;;;;;31.02;15.75;;;;;;;;;;5049014;28;20036;-77
2022/11/07 06:06:16;;;;;;;29.50;16.00;;;;;;;;;;5037740;28;20021;-77
2022/11/07 06:08:42;;;;;;;29.52;15.90;;;;;;;;;;5052668;28;20036;-78
2022/11/07 06:11:12;;;;;;;28.50;15.20;;;;;;;;;;5054918;28;20028;-81
2022/11/07 06:13:49;;;;;;;29.67;16.10;;;;;;;;;;5038309;28;20056;-80
2022/11/07 06:16:15;;;;;;;26.42;14.70;;;;;;;;;;5032198;28;20071;-81
2022/11/07 06:18:41;;;;;;;26.98;15.63;;;;;;;;;;5030106;28;20048;-78
2022/11/07 06:21:07;;;;;;;27.30;15.70;;;;;;;;;;5032964;28;20033;-78
2022/11/07 06:23:36;;;;;;;27.48;15.48;;;;;;;;;;5031782;28;20100;-78
2022/11/07 06:26:02;;;;;;;27.95;15.50;;;;;;;;;;5031749;28;20061;-78
2022/11/07 06:28:28;;;;;;;25.17;14.75;;;;;;;;;;5032959;28;20060;-78
2022/11/07 06:30:58;;;;;;;27.40;14.80;;;;;;;;;;5032682;28;20379;-78
2022/11/07 06:33:24;;;;;;;28.50;14.10;;;;;;;;;;5015526;28;20052;-78
2022/11/07 06:35:51;;;;;;;23.92;12.60;;;;;;;;;;5031895;28;20083;-77
2022/11/07 06:38:17;;;;;;;21.45;12.23;;;;;;;;;;5013510;28;20048;-79
2022/11/07 06:40:43;;;;;;;22.55;13.45;;;;;;;;;;5031838;28;20088;-79
2022/11/07 06:43:16;;;;;;;19.52;11.00;;;;;;;;;;5032101;28;20065;-78
2022/11/07 06:45:44;;;;;;;18.08;11.32;;;;;;;;;;5013872;28;20064;-77
2022/11/07 06:48:11;;;;;;;16.65;9.95;;;;;;;;;;5013136;28;20040;-78
2022/11/07 06:50:37;;;;;;;20.23;10.88;;;;;;;;;;5033288;28;20037;-79
2022/11/07 06:53:05;;;;;;;20.20;11.15;;;;;;;;;;5033423;28;20068;-78
2022/11/07 06:55:32;;;;;;;19.35;11.95;;;;;;;;;;5033364;28;20025;-77
2022/11/07 06:58:05;;;;;;;19.50;11.60;;;;;;;;;;5014738;28;20914;-80
2022/11/07 07:00:31;;;;;;;18.85;11.07;;;;;;;;;;5040971;28;20033;-77
2022/11/07 07:03:00;;;;;;;16.50;10.50;;;;;;;;;;5053910;28;20112;-77
2022/11/07 07:05:26;;;;;;;13.43;8.40;;;;;;;;;;5054805;28;20025;-77
2022/11/07 07:07:54;;;;;;;11.70;7.97;;;;;;;;;;5035617;28;20540;-78
2022/11/07 07:10:26;;;;;;;12.88;7.22;;;;;;;;;;5053536;28;20017;-77
2022/11/07 07:12:52;;;;;;;15.45;9.35;;;;;;;;;;5054572;28;20017;-78
2022/11/07 07:15:18;;;;;;;25.38;9.85;;;;;;;;;;5054760;28;20025;-79
2022/11/07 07:17:44;;;;;;;17.17;11.25;;;;;;;;;;5053763;28;20028;-78
2022/11/07 07:20:14;;;;;;;17.25;11.27;;;;;;;;;;5053101;28;20033;-77
2022/11/07 07:22:40;;;;;;;16.88;11.10;;;;;;;;;;5053097;28;20072;-79
2022/11/07 07:25:06;;;;;;;19.20;11.23;;;;;;;;;;5055022;28;20492;-77
2022/11/07 07:27:32;;;;;;;18.60;11.70;;;;;;;;;;5053203;28;20040;-78
2022/11/07 07:30:01;;;;;;;16.85;10.88;;;;;;;;;;5053360;28;20017;-78
2022/11/07 07:32:27;;;;;;;19.05;11.13;;;;;;;;;;5052717;28;20025;-78
2022/11/07 07:34:53;;;;;;;18.73;11.48;;;;;;;;;;5034610;28;20032;-77
2022/11/07 07:37:35;;;;;;;16.77;11.73;;;;;;;;;;5070975;22;20059;-78
2022/11/07 07:40:09;;;;;;;17.70;11.00;;;;;;;;;;5071871;28;20478;-78
2022/11/07 07:43:07;;;;;;;14.50;10.02;;;;;;;;;;5073025;28;20017;-77
2022/11/07 07:45:36;;;;;;;18.45;10.85;;;;;;;;;;5045331;28;20036;-79
2022/11/07 07:48:05;;;;;;;20.17;11.90;;;;;;;;;;5069296;28;20044;-76
2022/11/07 07:50:35;;;;;;;23.05;11.80;;;;;;;;;;5072291;28;20035;-77
2022/11/07 07:53:21;;;;;;;21.15;11.95;;;;;;;;;;5072375;28;20115;-78
2022/11/07 07:56:05;;;;;;;19.73;12.10;;;;;;;;;;5069306;28;20466;-78
2022/11/07 07:58:48;;;;;;;21.77;12.18;;;;;;;;;;5070476;28;20059;-80
2022/11/07 08:01:35;;;;;;;22.88;12.65;;;;;;;;;;5072785;28;20024;-78
2022/11/07 08:07:50;;;;;;;20.25;12.13;;;;;;;;;;4984730;28;20061;-78
2022/11/07 08:14:11;;;;;;;;;;;;;;;;;;;;;
2022/11/07 08:17:00;;;;;;;22.45;12.43;;;;;;;;;;4971255;28;20023;-77
2022/11/07 08:19:37;;;;;;;18.88;11.35;;;;;;;;;;4954302;28;20053;-79
2022/11/07 08:22:03;;;;;;;20.33;11.95;;;;;;;;;;4974589;28;20084;-78
2022/11/07 08:24:32;;;;;;;20.70;13.00;;;;;;;;;;4973175;28;20473;-78
2022/11/07 08:27:51;;;;;;;15.93;11.10;;;;;;;;;;5023322;23;20133;-78
2022/11/07 08:33:48;;;;;;;15.73;10.50;;;;;;;;;;4969516;28;20516;-80
2022/11/07 08:36:33;;;;;;;14.88;10.32;;;;;;;;;;4969334;28;20129;-77
2022/11/07 08:42:48;;;;;;;;;;;;;;;;;;;;;
2022/11/07 08:45:46;;;;;;;13.15;8.15;;;;;;;;;;5002225;28;20033;-78
2022/11/07 08:48:37;;;;;;;7.85;3.60;;;;;;;;;;5009731;28;20041;-79
2022/11/07 08:54:39;;;;;;;2.70;1.80;;;;;;;;;;5040842;28;20397;-79
2022/11/07 09:00:55;;;;;;;;;;;;;;;;;;;;;
2022/11/07 09:06:31;;;;;;;;;;;;;;;;;;;;;
2022/11/07 09:12:37;;;;;;;3.65;2.05;;;;;;;;;;5013096;28;20034;-78
2022/11/07 09:21:50;;;;;;;;;;;;;;;;;;;;;
2022/11/07 09:24:37;;;;;;;;;;;;;;;;;;;;;
2022/11/07 09:40:41;;;;;;;;;;;;;;;;;;;;;
2022/11/07 09:52:39;;;;;;;2.88;1.23;;;;;;;;;;5072387;28;20025;-77
2022/11/07 09:55:29;;;;;;;3.58;1.38;;;;;;;;;;5074433;28;20048;-77
2022/11/07 10:04:38;;;;;;;3.45;1.30;;;;;;;;;;5073457;28;20036;-78
2022/11/07 10:07:18;;;;;;;2.45;1.30;;;;;;;;;;5072871;28;20055;-75
2022/11/07 10:10:21;;;;;;;3.65;1.13;;;;;;;;;;5073950;28;20044;-77
2022/11/07 10:12:56;;;;;;;2.35;1.52;;;;;;;;;;5056190;28;20107;-78
2022/11/07 10:19:01;;;;;;;2.67;1.45;;;;;;;;;;5018998;28;20026;-78
2022/11/07 10:21:46;;;;;;;2.92;1.58;;;;;;;;;;5069587;28;20024;-78
2022/11/07 10:24:33;;;;;;;4.28;1.25;;;;;;;;;;5075863;28;20032;-82
2022/11/07 10:27:03;;;;;;;1.83;1.25;;;;;;;;;;5073953;28;20036;-76
2022/11/07 10:29:36;;;;;;;3.40;1.10;;;;;;;;;;5074058;28;20025;-79
2022/11/07 10:32:44;;;;;;;3.70;1.48;;;;;;;;;;5056213;28;20183;-78
2022/11/07 10:35:43;;;;;;;3.90;1.45;;;;;;;;;;5031370;28;20025;-78
2022/11/07 10:48:06;;;;;;;;;;;;;;;;;;;;;
2022/11/07 10:50:35;;;;;;;3.55;1.38;;;;;;;;;;4986770;28;20030;-78
2022/11/07 10:53:23;;;;;;;5.80;1.23;;;;;;;;;;5061716;28;20379;-79
2022/11/07 10:56:12;;;;;;;4.05;1.48;;;;;;;;;;5073052;28;20016;-77
2022/11/07 10:58:46;;;;;;;5.13;1.60;;;;;;;;;;5054050;28;20056;-78
2022/11/07 11:01:22;;;;;;;;;;;;;;;;;;;;;
2022/11/07 11:03:58;;;;;;;4.28;1.05;;;;;;;;;;5071925;28;20043;-79
2022/11/07 11:06:30;;;;;;;4.40;1.27;;;;;;;;;;5072583;28;20021;-78
2022/11/07 11:09:31;;;;;;;;;;;;;;;;;;;;;
2022/11/07 11:15:09;;;;;;;3.58;1.48;;;;;;;;;;5072838;28;20039;-78
2022/11/07 11:21:20;;;;;;;5.80;1.80;;;;;;;;;;5061451;28;20051;-77
2022/11/07 11:26:48;;;;;;;6.38;1.38;;;;;;;;;;4991096;28;20496;-78
2022/11/07 11:32:27;;;;;;;5.20;1.60;;;;;;;;;;5057309;28;20107;-77
2022/11/07 11:35:22;;;;;;;;;;;;;;;;;;;;;
2022/11/07 11:38:31;;;;;;;;;;;;;;;;;;;;;
2022/11/07 11:42:03;;;;;;;;;;;;;;;;;;;;;
2022/11/07 11:44:50;;;;;;;3.45;1.40;;;;;;;;;;5063253;28;20051;-79
2022/11/07 11:47:47;;;;;;;3.40;1.23;;;;;;;;;;5071557;28;20032;-79
2022/11/07 11:50:39;;;;;;;4.63;1.70;;;;;;;;;;5063018;28;20078;-76
2022/11/07 12:03:07;;;;;;;4.07;1.85;;;;;;;;;;5074370;28;20238;-79
2022/11/07 12:06:08;;;;;;;3.40;1.35;;;;;;;;;;5074728;28;20025;-77
2022/11/07 12:08:53;;;;;;;5.57;1.65;;;;;;;;;;5054761;28;20063;-79
2022/11/07 12:17:47;;;;;;;5.60;1.67;;;;;;;;;;4989772;28;20358;-78
2022/11/07 12:26:55;;;;;;;;;;;;;;;;;;;;;
2022/11/07 12:39:00;;;;;;;6.97;1.60;;;;;;;;;;5004436;28;20041;-77
2022/11/07 12:41:47;;;;;;;5.40;1.52;;;;;;;;;;5009200;28;20030;-77
2022/11/07 12:44:13;;;;;;;3.50;1.48;;;;;;;;;;5025750;28;20057;-77
2022/11/07 12:56:15;;;;;;;4.95;1.27;;;;;;;;;;5006491;28;20511;-77
2022/11/07 12:58:57;;;;;;;;;;;;;;;;;;;;;
2022/11/07 13:04:55;;;;;;;7.40;1.65;;;;;;;;;;5066576;28;20610;-78
2022/11/07 13:07:57;;;;;;;2.47;1.58;;;;;;;;;;5051068;28;20104;-77
2022/11/07 13:23:44;;;;;;;;;;;;;;;;;;;;;
2022/11/07 13:26:48;;;;;;;;;;;;;;;;;;;;;
2022/11/07 13:54:26;;;;;;;;;;;;;;;;;;;;;
2022/11/07 13:57:29;;;;;;;;;;;;;;;;;;;;;
2022/11/07 14:00:20;;;;;;;9.25;1.67;;;;;;;;;;5005298;28;20033;-78
2022/11/07 14:06:19;;;;;;;4.68;1.90;;;;;;;;;;5053864;28;20032;-77
2022/11/07 14:12:36;;;;;;;5.55;1.77;;;;;;;;;;4991835;28;20041;-77
2022/11/07 14:18:20;;;;;;;8.02;1.52;;;;;;;;;;4971632;28;20173;-76
2022/11/07 14:21:12;;;;;;;7.00;1.35;;;;;;;;;;4972502;28;20508;-76
2022/11/07 14:32:35;;;;;;;6.35;1.48;;;;;;;;;;5073612;28;20111;-75
2022/11/07 14:44:32;;;;;;;5.13;1.38;;;;;;;;;;5073322;28;20032;-77
2022/11/07 14:47:14;;;;;;;;;;;;;;;;;;;;;
2022/11/07 14:49:42;;;;;;;4.30;1.48;;;;;;;;;;5060090;28;20119;-76
2022/11/07 14:52:34;;;;;;;5.43;1.63;;;;;;;;;;5075470;28;20037;-77
2022/11/07 14:55:19;;;;;;;4.18;1.70;;;;;;;;;;5065160;28;20021;-77
2022/11/07 14:58:14;;;;;;;5.95;1.45;;;;;;;;;;5071917;28;20048;-77
2022/11/07 15:01:12;;;;;;;9.60;1.90;;;;;;;;;;5057347;28;20498;-76
2022/11/07 15:04:12;;;;;;;6.43;1.55;;;;;;;;;;5054250;28;20511;-77
2022/11/07 15:07:19;;;;;;;5.30;1.60;;;;;;;;;;5072688;28;20052;-77
2022/11/07 15:09:45;;;;;;;5.68;1.20;;;;;;;;;;5072651;28;20040;-78
2022/11/07 15:12:40;;;;;;;5.90;1.98;;;;;;;;;;5072324;28;20016;-77
2022/11/07 15:18:21;;;;;;;6.07;1.33;;;;;;;;;;5060749;28;20110;-79
2022/11/07 15:20:55;;;;;;;12.10;5.35;;;;;;;;;;5073060;28;20016;-77
2022/11/07 15:23:24;;;;;;;11.63;6.55;;;;;;;;;;5072440;28;20530;-77
2022/11/07 15:26:12;;;;;;;11.32;4.72;;;;;;;;;;5069156;28;20028;-78
2022/11/07 15:28:50;;;;;;;9.00;2.97;;;;;;;;;;5071721;28;20456;-78
2022/11/07 15:31:49;;;;;;;;;;;;;;;;;;;;;
2022/11/07 15:34:26;;;;;;;;;;;;;;;;;;;;;
2022/11/07 15:55:03;;;;;;;3.60;1.58;;;;;;;;;;5022586;28;20040;-79
2022/11/07 16:03:24;;;;;;;6.07;1.55;;;;;;;;;;5093962;22;20083;-78
2022/11/07 16:05:51;;;;;;;5.90;2.10;;;;;;;;;;5071600;28;20024;-77
2022/11/07 16:08:19;;;;;;;5.03;1.73;;;;;;;;;;5070409;28;20508;-78
2022/11/07 16:10:49;;;;;;;4.47;1.90;;;;;;;;;;5070442;28;20024;-78
2022/11/07 16:21:25;;;;;;;;;;;;;;;;;;;;;
2022/11/07 16:24:46;;;;;;;7.05;1.63;;;;;;;;;;5080344;22;20497;-76
2022/11/07 17:12:39;;;;;;;6.63;2.80;;;;;;;;;;5057984;22;20055;-76
2022/11/07 17:15:06;;;;;;;6.88;2.97;;;;;;;;;;5052313;28;20026;-75
2022/11/07 17:17:58;;;;;;;5.68;2.30;;;;;;;;;;5067372;28;20035;-75
2022/11/07 17:20:53;;;;;;;4.78;2.15;;;;;;;;;;5075434;28;20082;-76
2022/11/07 17:23:32;;;;;;;5.53;2.50;;;;;;;;;;5054562;28;20483;-79
2022/11/07 17:26:18;;;;;;;5.45;2.47;;;;;;;;;;5054421;28;20127;-76
2022/11/07 17:34:49;;;;;;;9.32;2.53;;;;;;;;;;5050721;28;20576;-75
2022/11/07 17:37:50;;;;;;;5.35;2.35;;;;;;;;;;5072796;28;20032;-77
2022/11/07 17:40:28;;;;;;;7.97;2.60;;;;;;;;;;5031570;28;20419;-76
2022/11/07 17:46:34;;;;;;;9.77;2.50;;;;;;;;;;5033386;28;20037;-77
2022/11/07 17:49:18;;;;;;;8.10;3.05;;;;;;;;;;5046905;28;20059;-78
2022/11/07 17:52:31;;;;;;;5.03;2.08;;;;;;;;;;5053634;28;20407;-76
2022/11/07 17:55:02;;;;;;;6.88;2.78;;;;;;;;;;5038929;28;20029;-77
2022/11/07 17:57:52;;;;;;;;;;;;;;;;;;;;;
2022/11/07 18:00:50;;;;;;;8.05;2.65;;;;;;;;;;5051754;28;20040;-76
2022/11/07 18:03:27;;;;;;;7.72;2.95;;;;;;;;;;5053426;28;20448;-74
2022/11/07 18:05:58;;;;;;;10.85;3.83;;;;;;;;;;5054682;28;20036;-76
2022/11/07 18:08:34;;;;;;;11.70;4.90;;;;;;;;;;5053420;28;20021;-75
2022/11/07 18:11:03;;;;;;;10.27;4.38;;;;;;;;;;5053738;28;20305;-77
2022/11/07 18:13:30;;;;;;;10.52;4.10;;;;;;;;;;5052255;28;20033;-74
2022/11/07 18:16:16;;;;;;;12.68;5.22;;;;;;;;;;5054619;28;20103;-76
2022/11/07 18:18:48;;;;;;;9.38;5.20;;;;;;;;;;5052786;28;20017;-76
2022/11/07 18:21:17;;;;;;;9.80;4.35;;;;;;;;;;5053081;28;20024;-77
2022/11/07 18:23:53;;;;;;;10.90;5.15;;;;;;;;;;5053200;28;20443;-75
2022/11/07 18:29:21;;;;;;;11.57;6.00;;;;;;;;;;5035927;28;20098;-74
2022/11/07 18:38:43;;;;;;;17.60;8.60;;;;;;;;;;5041163;28;20048;-77
2022/11/07 18:41:23;;;;;;;18.35;7.50;;;;;;;;;;5051985;28;20028;-75
2022/11/07 18:44:20;;;;;;;;;;;;;;;;;;;;;
2022/11/07 18:47:14;;;;;;;11.48;5.70;;;;;;;;;;5051521;28;20075;-76
2022/11/07 18:50:03;;;;;;;12.55;5.63;;;;;;;;;;5049561;28;20099;-75
2022/11/07 18:52:55;;;;;;;;;;;;;;;;;;;;;
2022/11/07 18:55:50;;;;;;;9.75;5.05;;;;;;;;;;5049547;28;20037;-75
2022/11/07 18:58:47;;;;;;;;;;;;;;;;;;;;;
2022/11/07 19:01:37;;;;;;;7.35;4.00;;;;;;;;;;5052549;28;20035;-80
2022/11/07 19:04:26;;;;;;;12.02;4.93;;;;;;;;;;5052582;28;20032;-77
2022/11/07 19:07:21;;;;;;;8.20;3.35;;;;;;;;;;5052622;28;20025;-77
2022/11/07 19:10:21;;;;;;;7.65;3.15;;;;;;;;;;4981980;28;20038;-76
2022/11/07 19:12:50;;;;;;;8.15;3.10;;;;;;;;;;5048496;28;20036;-76
2022/11/07 19:18:37;;;;;;;5.88;2.17;;;;;;;;;;5049262;28;20022;-77
2022/11/07 19:27:31;;;;;;;4.35;2.22;;;;;;;;;;5051255;28;20039;-75
2022/11/07 19:30:27;;;;;;;6.28;2.50;;;;;;;;;;5052022;28;20029;-76
2022/11/07 19:36:27;;;;;;;5.55;2.33;;;;;;;;;;4990158;28;20551;-77
2022/11/07 19:38:53;;;;;;;5.70;2.40;;;;;;;;;;4988930;28;20181;-77
2022/11/07 19:44:16;;;;;;;6.70;2.25;;;;;;;;;;5043985;28;20031;-76
2022/11/07 19:46:50;;;;;;;6.07;2.40;;;;;;;;;;5051763;28;20032;-76
2022/11/07 19:49:31;;;;;;;6.28;2.60;;;;;;;;;;5049136;28;20339;-77
2022/11/07 19:52:05;;;;;;;8.02;1.98;;;;;;;;;;5051553;28;20079;-78
2022/11/07 19:54:51;;;;;;;;;;;;;;;;;;;;;
2022/11/07 19:57:27;;;;;;;4.63;1.88;;;;;;;;;;5050764;28;20516;-76
2022/11/07 19:59:55;;;;;;;7.93;2.58;;;;;;;;;;5051794;28;20048;-75
2022/11/07 20:02:38;;;;;;;5.00;2.05;;;;;;;;;;5051619;28;20502;-76
2022/11/07 20:05:33;;;;;;;5.13;2.00;;;;;;;;;;5050330;28;20029;-77
2022/11/07 20:08:15;;;;;;;3.70;1.80;;;;;;;;;;5046328;28;20036;-77
2022/11/07 20:11:15;;;;;;;4.78;1.60;;;;;;;;;;5051476;28;20024;-76
2022/11/07 20:14:22;;;;;;;5.97;1.85;;;;;;;;;;4982875;28;20494;-76
2022/11/07 20:16:58;;;;;;;6.63;2.17;;;;;;;;;;5030240;28;20041;-76
2022/11/07 20:19:37;;;;;;;;;;;;;;;;;;;;;
2022/11/07 20:22:13;;;;;;;5.03;1.90;;;;;;;;;;5051204;28;20027;-76
2022/11/07 20:27:30;;;;;;;4.95;1.90;;;;;;;;;;5050713;28;20307;-76
2022/11/07 20:30:15;;;;;;;6.22;2.20;;;;;;;;;;5050999;28;20375;-75
2022/11/07 20:33:07;;;;;;;8.55;2.25;;;;;;;;;;5050369;28;20074;-77
2022/11/07 20:35:45;;;;;;;9.32;2.15;;;;;;;;;;5043585;28;20139;-78
2022/11/07 20:38:37;;;;;;;6.90;2.30;;;;;;;;;;5029636;28;20045;-76
2022/11/07 20:41:29;;;;;;;6.03;2.15;;;;;;;;;;5027408;28;20367;-77
2022/11/07 20:44:13;;;;;;;8.43;2.13;;;;;;;;;;5028414;28;20038;-76
2022/11/07 20:46:41;;;;;;;3.97;1.60;;;;;;;;;;5054557;28;20111;-75
2022/11/07 20:49:14;;;;;;;5.53;2.30;;;;;;;;;;5054775;28;20029;-76
2022/11/07 20:51:43;;;;;;;4.78;2.33;;;;;;;;;;5055048;28;20017;-77
2022/11/07 20:54:30;;;;;;;6.07;2.40;;;;;;;;;;5054972;28;20469;-76
2022/11/07 20:57:24;;;;;;;6.13;2.78;;;;;;;;;;5054075;28;20033;-76
2022/11/07 21:00:01;;;;;;;7.75;2.90;;;;;;;;;;5052624;28;20407;-79
2022/11/07 21:02:40;;;;;;;7.35;2.88;;;;;;;;;;5053222;28;20021;-77
2022/11/07 21:05:17;;;;;;;6.57;2.40;;;;;;;;;;5053616;28;20029;-76
2022/11/07 21:07:54;;;;;;;5.47;2.42;;;;;;;;;;5056021;28;20491;-80
2022/11/07 21:17:08;;;;;;;7.00;3.20;;;;;;;;;;4904268;26;20044;-83
2022/11/07 21:19:32;;;;;;;7.38;3.42;;;;;;;;;;4982349;28;20626;-79
2022/11/07 21:53:35;;;;;;;7.03;2.72;;;;;;;;;;5048813;28;20083;-80
2022/11/07 21:56:36;;;;;;;7.93;3.10;;;;;;;;;;5031804;28;20112;-80
2022/11/07 21:59:12;;;;;;;7.15;3.25;;;;;;;;;;4993405;28;20448;-79
2022/11/07 22:04:56;;;;;;;11.57;5.65;;;;;;;;;;5053151;28;20037;-81
2022/11/07 22:07:47;;;;;;;8.88;2.60;;;;;;;;;;5039447;28;20036;-85
2022/11/07 22:10:19;;;;;;;5.43;2.42;;;;;;;;;;5046641;28;20049;-85
2022/11/07 22:12:57;;;;;;;6.25;2.55;;;;;;;;;;5042288;28;20129;-82
2022/11/07 22:15:37;;;;;;;7.90;2.60;;;;;;;;;;5055887;28;20099;-80
2022/11/07 22:21:40;;;;;;;8.00;3.40;;;;;;;;;;5025325;28;20060;-78